Time;durP1;ratioP1;P1;durP2;ratioP2;P2;SDS_P1;SDS_P2;PMS_P1;PMS_P2;Temp;Humidity;BMP_temperature;BMP_pressure;BME280_temperature;BME280_humidity;BME280_pressure;Samples;Min_cycle;Max_cycle;Signal;HPM_P1;HPM_P2
2022/05/09 00:00:08;;;;;;;18.77;6.93;;;7.80;99.90;;;;;;5017815;28;20050;-69
2022/05/09 00:02:33;;;;;;;17.75;6.90;;;7.80;99.90;;;;;;5017807;28;20084;-69
2022/05/09 00:04:59;;;;;;;21.25;6.63;;;7.80;99.90;;;;;;5017805;28;20096;-69
2022/05/09 00:07:25;;;;;;;16.25;7.40;;;7.80;99.90;;;;;;5017653;28;20041;-69
2022/05/09 00:09:50;;;;;;;22.88;7.75;;;7.70;99.90;;;;;;5016814;28;20425;-69
2022/05/09 00:12:17;;;;;;;19.83;6.40;;;7.70;99.90;;;;;;5017998;28;20050;-69
2022/05/09 00:14:42;;;;;;;20.20;7.78;;;7.70;99.90;;;;;;5017101;28;20053;-69
2022/05/09 00:17:08;;;;;;;13.48;6.32;;;7.70;99.90;;;;;;5000623;28;20148;-69
2022/05/09 00:19:34;;;;;;;16.60;6.93;;;7.70;99.90;;;;;;5017546;28;20073;-69
2022/05/09 00:21:59;;;;;;;16.23;6.38;;;7.60;99.90;;;;;;5017417;28;20404;-69
2022/05/09 00:24:25;;;;;;;15.48;6.50;;;7.70;99.90;;;;;;5017527;28;20049;-69
2022/05/09 00:26:52;;;;;;;13.68;6.90;;;7.60;99.90;;;;;;5016587;28;20091;-69
2022/05/09 00:29:20;;;;;;;14.27;7.13;;;7.60;99.90;;;;;;5017078;28;20049;-69
2022/05/09 00:31:47;;;;;;;17.30;8.18;;;7.60;99.90;;;;;;5017598;28;20093;-69
2022/05/09 00:34:17;;;;;;;16.75;6.70;;;7.50;99.90;;;;;;5016797;28;20478;-68
2022/05/09 00:36:43;;;;;;;15.70;6.55;;;7.50;99.90;;;;;;5017342;28;20391;-69
2022/05/09 00:39:09;;;;;;;18.50;7.38;;;7.40;99.90;;;;;;5017248;28;20367;-68
2022/05/09 00:41:36;;;;;;;20.65;7.22;;;7.50;99.90;;;;;;5017139;28;20050;-68
2022/05/09 00:44:06;;;;;;;18.48;7.72;;;7.50;99.90;;;;;;5016240;28;20117;-69
2022/05/09 00:46:33;;;;;;;20.77;7.22;;;7.40;99.90;;;;;;5017064;28;20113;-69
2022/05/09 00:49:07;;;;;;;18.38;7.63;;;7.40;99.90;;;;;;5016919;28;20058;-69
2022/05/09 00:51:35;;;;;;;18.33;6.60;;;7.40;99.90;;;;;;5016546;28;20460;-68
2022/05/09 00:54:04;;;;;;;15.73;6.78;;;7.40;99.90;;;;;;5016856;28;20163;-69
2022/05/09 00:56:43;;;;;;;16.83;7.07;;;7.40;99.90;;;;;;5016475;28;20042;-69
2022/05/09 00:59:13;;;;;;;19.63;6.88;;;7.40;99.90;;;;;;5016762;28;20050;-69
2022/05/09 01:01:40;;;;;;;13.88;6.72;;;7.40;99.90;;;;;;5016046;28;20046;-68
2022/05/09 01:04:21;;;;;;;18.83;6.53;;;7.40;99.90;;;;;;5016594;28;20160;-68
2022/05/09 01:06:48;;;;;;;15.07;6.38;;;7.40;99.90;;;;;;5016581;28;20404;-69
2022/05/09 01:09:14;;;;;;;14.65;6.72;;;7.40;99.90;;;;;;5016736;28;20041;-69
2022/05/09 01:11:43;;;;;;;14.60;6.80;;;7.40;99.90;;;;;;5016487;28;20156;-67
2022/05/09 01:14:20;;;;;;;16.77;6.75;;;7.40;99.90;;;;;;5016238;28;20069;-67
2022/05/09 01:16:46;;;;;;;16.38;6.97;;;7.40;99.90;;;;;;5015629;28;20050;-68
2022/05/09 01:19:37;;;;;;;16.13;6.18;;;7.30;99.90;;;;;;4998992;28;20057;-69
2022/05/09 01:22:15;;;;;;;18.77;7.00;;;7.30;99.90;;;;;;5016528;28;20176;-68
2022/05/09 01:24:41;;;;;;;19.55;6.55;;;7.30;99.90;;;;;;5016264;28;20046;-68
2022/05/09 01:27:07;;;;;;;16.75;6.60;;;7.30;99.90;;;;;;5016182;28;20050;-68
2022/05/09 01:29:57;;;;;;;21.33;6.75;;;7.30;99.90;;;;;;5016434;28;20041;-67
2022/05/09 01:32:43;;;;;;;20.80;6.85;;;7.20;99.90;;;;;;5016163;28;20045;-68
2022/05/09 01:35:12;;;;;;;16.42;6.38;;;7.20;99.90;;;;;;5015244;28;20057;-68
2022/05/09 01:37:39;;;;;;;19.27;6.95;;;7.10;99.90;;;;;;5016060;28;20049;-67
2022/05/09 01:40:06;;;;;;;25.50;7.38;;;7.10;99.90;;;;;;5015819;28;20133;-68
2022/05/09 01:42:32;;;;;;;24.88;7.05;;;7.10;99.90;;;;;;5015889;28;20054;-68
2022/05/09 01:44:58;;;;;;;22.85;7.32;;;7.10;99.90;;;;;;5015693;28;20129;-68
2022/05/09 01:50:07;;;;;;;14.95;5.95;;;7.10;99.90;;;;;;5016186;28;20086;-68
2022/05/09 01:52:33;;;;;;;22.85;7.72;;;7.10;99.90;;;;;;5014960;28;20049;-68
2022/05/09 01:54:59;;;;;;;13.02;6.53;;;7.00;99.90;;;;;;5015637;28;20049;-67
2022/05/09 01:57:25;;;;;;;15.48;6.85;;;7.00;99.90;;;;;;5015774;28;20050;-68
2022/05/09 01:59:50;;;;;;;20.90;7.22;;;7.00;99.90;;;;;;5015644;28;20378;-68
2022/05/09 02:02:18;;;;;;;14.65;5.93;;;7.00;99.90;;;;;;5015588;28;20061;-67
2022/05/09 02:04:44;;;;;;;19.13;5.78;;;7.00;99.90;;;;;;5015274;28;20459;-67
2022/05/09 02:07:13;;;;;;;19.63;6.45;;;7.00;99.90;;;;;;5015448;28;20046;-68
2022/05/09 02:09:41;;;;;;;13.30;6.15;;;7.00;99.90;;;;;;5014887;28;20046;-68
2022/05/09 02:12:07;;;;;;;18.30;6.60;;;7.00;99.90;;;;;;5015667;28;20048;-68
2022/05/09 02:14:32;;;;;;;14.55;5.68;;;7.00;99.90;;;;;;5015230;28;20473;-67
2022/05/09 02:16:58;;;;;;;19.00;6.10;;;6.90;99.90;;;;;;5015459;28;20134;-68
2022/05/09 02:19:24;;;;;;;13.40;6.38;;;6.90;99.90;;;;;;5015352;28;20095;-67
2022/05/09 02:21:50;;;;;;;13.10;6.18;;;6.90;99.90;;;;;;5015144;28;20080;-68
2022/05/09 02:24:16;;;;;;;17.38;6.50;;;6.80;99.90;;;;;;5015470;28;20080;-67
2022/05/09 02:26:41;;;;;;;14.60;5.78;;;6.80;99.90;;;;;;5014552;28;20042;-68
2022/05/09 02:29:07;;;;;;;22.25;6.20;;;6.80;99.90;;;;;;5014907;28;20093;-67
2022/05/09 02:31:34;;;;;;;19.73;6.70;;;6.80;99.90;;;;;;5015470;28;20081;-68
2022/05/09 02:34:01;;;;;;;20.13;6.60;;;6.80;99.90;;;;;;5015127;28;20041;-67
2022/05/09 02:36:27;;;;;;;16.92;6.15;;;6.70;99.90;;;;;;5014716;28;20057;-68
2022/05/09 02:38:52;;;;;;;15.07;5.75;;;6.70;99.90;;;;;;5014387;28;20456;-67
2022/05/09 02:41:18;;;;;;;14.85;5.63;;;6.70;99.90;;;;;;5015299;28;20077;-67
2022/05/09 02:43:43;;;;;;;16.05;6.50;;;6.70;99.90;;;;;;5014308;28;20049;-68
2022/05/09 02:46:09;;;;;;;16.02;6.35;;;6.60;99.90;;;;;;5015035;28;20119;-67
2022/05/09 02:48:36;;;;;;;16.05;6.05;;;6.60;99.90;;;;;;5014834;28;20092;-67
2022/05/09 02:51:03;;;;;;;14.90;5.22;;;6.50;99.90;;;;;;5014444;28;20464;-68
2022/05/09 02:53:29;;;;;;;16.40;5.90;;;6.50;99.90;;;;;;5014933;28;20399;-67
2022/05/09 02:55:55;;;;;;;18.58;6.38;;;6.50;99.90;;;;;;5014909;28;20034;-68
2022/05/09 02:58:21;;;;;;;12.93;5.35;;;6.50;99.90;;;;;;5015239;28;20046;-68
2022/05/09 03:00:46;;;;;;;14.15;5.50;;;6.40;99.90;;;;;;5014189;28;20363;-67
2022/05/09 03:05:58;;;;;;;13.90;5.47;;;6.30;99.90;;;;;;5014849;28;20045;-68
2022/05/09 03:08:24;;;;;;;16.38;6.82;;;6.40;99.90;;;;;;5014750;28;20042;-68
2022/05/09 03:10:50;;;;;;;12.98;6.03;;;6.30;99.90;;;;;;5014899;28;20042;-67
2022/05/09 03:13:16;;;;;;;16.67;6.65;;;6.30;99.90;;;;;;5014718;28;20037;-67
2022/05/09 03:15:44;;;;;;;14.85;6.63;;;6.30;99.90;;;;;;5014059;28;20050;-67
2022/05/09 03:18:11;;;;;;;16.70;6.25;;;6.30;99.90;;;;;;5014459;28;20049;-68
2022/05/09 03:20:37;;;;;;;20.63;6.60;;;6.30;99.90;;;;;;5014799;28;20380;-67
2022/05/09 03:23:05;;;;;;;16.52;5.50;;;6.30;99.90;;;;;;5014739;28;20038;-67
2022/05/09 03:25:31;;;;;;;14.70;6.32;;;6.40;99.90;;;;;;5014671;28;20082;-67
2022/05/09 03:27:57;;;;;;;23.20;6.60;;;6.40;99.90;;;;;;4997410;28;20054;-67
2022/05/09 03:30:24;;;;;;;15.60;6.50;;;6.50;99.90;;;;;;5014329;28;20073;-67
2022/05/09 03:32:50;;;;;;;13.70;6.55;;;6.50;99.90;;;;;;5013672;28;20093;-68
2022/05/09 03:35:16;;;;;;;22.05;7.63;;;6.50;99.90;;;;;;5014518;28;20069;-68
2022/05/09 03:37:41;;;;;;;28.67;7.95;;;6.60;99.90;;;;;;5014599;28;20053;-67
2022/05/09 03:40:07;;;;;;;26.15;7.95;;;6.60;99.90;;;;;;5014569;28;20064;-67
2022/05/09 03:42:33;;;;;;;15.18;7.03;;;6.60;99.90;;;;;;5014539;28;20467;-67
2022/05/09 03:44:59;;;;;;;20.60;7.38;;;6.60;99.90;;;;;;5014496;28;20056;-67
2022/05/09 03:47:24;;;;;;;27.98;8.82;;;6.70;99.90;;;;;;4997125;28;20056;-68
2022/05/09 03:49:55;;;;;;;27.70;9.48;;;6.70;99.90;;;;;;5011857;28;20096;-67
2022/05/09 03:52:21;;;;;;;26.48;10.40;;;6.70;99.90;;;;;;5018013;28;20089;-67
2022/05/09 03:54:47;;;;;;;15.50;8.02;;;6.70;99.90;;;;;;5017845;28;20479;-67
2022/05/09 03:57:12;;;;;;;23.95;8.02;;;6.80;99.90;;;;;;5017952;28;20119;-67
2022/05/09 03:59:38;;;;;;;15.30;7.63;;;6.80;99.90;;;;;;5017954;28;20431;-68
2022/05/09 04:02:03;;;;;;;21.77;9.57;;;6.80;99.90;;;;;;5017299;28;20099;-68
2022/05/09 04:04:29;;;;;;;18.20;7.35;;;6.80;99.90;;;;;;5017797;28;20038;-67
2022/05/09 04:06:54;;;;;;;22.90;7.28;;;6.90;99.90;;;;;;5017062;28;20112;-68
2022/05/09 04:09:20;;;;;;;19.08;7.78;;;6.90;99.90;;;;;;5017553;28;20042;-67
2022/05/09 04:11:47;;;;;;;17.10;7.82;;;7.00;99.90;;;;;;5017847;28;20064;-67
2022/05/09 04:14:14;;;;;;;21.52;7.47;;;6.90;99.90;;;;;;5017707;28;20042;-68
2022/05/09 04:16:51;;;;;;;16.48;6.63;;;7.00;99.90;;;;;;5017406;28;20373;-67
2022/05/09 04:19:20;;;;;;;16.00;7.72;;;6.90;99.90;;;;;;5017659;28;20046;-67
2022/05/09 04:21:47;;;;;;;17.98;7.70;;;7.00;99.90;;;;;;5017597;28;20042;-67
2022/05/09 04:24:13;;;;;;;20.83;8.13;;;7.00;99.90;;;;;;5016863;28;20340;-67
2022/05/09 04:26:39;;;;;;;20.55;7.82;;;7.10;99.90;;;;;;5017459;28;20046;-67
2022/05/09 04:29:05;;;;;;;21.48;9.05;;;7.10;99.90;;;;;;5017375;28;20057;-68
2022/05/09 04:31:30;;;;;;;23.38;8.60;;;7.10;99.90;;;;;;5017292;28;20038;-67
2022/05/09 04:33:58;;;;;;;21.20;7.82;;;7.20;99.90;;;;;;5017263;28;20124;-67
2022/05/09 04:36:26;;;;;;;18.75;8.50;;;7.20;99.90;;;;;;5017103;28;20049;-67
2022/05/09 04:38:52;;;;;;;24.52;8.65;;;7.20;99.90;;;;;;5016348;28;20451;-67
2022/05/09 04:41:19;;;;;;;21.58;8.05;;;7.20;99.90;;;;;;5016618;28;20045;-67
2022/05/09 04:43:46;;;;;;;22.55;7.63;;;7.20;99.90;;;;;;5016494;28;20464;-68
2022/05/09 04:46:12;;;;;;;23.05;8.75;;;7.20;99.90;;;;;;5016980;28;20352;-68
2022/05/09 04:48:40;;;;;;;24.65;8.90;;;7.30;99.90;;;;;;5016394;28;20062;-67
2022/05/09 04:51:06;;;;;;;21.58;8.65;;;7.30;99.90;;;;;;5017017;28;20038;-67
2022/05/09 04:53:32;;;;;;;26.73;9.02;;;7.30;99.90;;;;;;5016938;28;20055;-67
2022/05/09 04:55:58;;;;;;;23.50;8.57;;;7.30;99.90;;;;;;5016381;28;20049;-67
2022/05/09 04:58:24;;;;;;;20.73;9.25;;;7.40;99.90;;;;;;5015806;28;20060;-68
2022/05/09 05:00:49;;;;;;;31.45;9.10;;;7.40;99.90;;;;;;5013606;28;20041;-68
2022/05/09 05:03:15;;;;;;;22.92;8.25;;;7.40;99.90;;;;;;5014671;28;20099;-68
2022/05/09 05:05:42;;;;;;;19.17;9.70;;;7.50;99.90;;;;;;5016545;28;20084;-68
2022/05/09 05:08:08;;;;;;;21.45;9.25;;;7.50;99.90;;;;;;5016336;28;20100;-68
2022/05/09 05:10:34;;;;;;;18.95;9.57;;;7.50;99.90;;;;;;5016588;28;20439;-68
2022/05/09 05:13:02;;;;;;;24.67;9.40;;;7.60;99.90;;;;;;5016329;28;20054;-68
2022/05/09 05:15:28;;;;;;;19.17;8.48;;;7.60;99.90;;;;;;5015305;28;20046;-67
2022/05/09 05:17:54;;;;;;;21.95;8.38;;;7.60;99.90;;;;;;5016385;28;20071;-67
2022/05/09 05:20:20;;;;;;;21.25;8.10;;;7.60;99.90;;;;;;5016287;28;20042;-68
2022/05/09 05:22:47;;;;;;;19.20;9.23;;;7.70;99.90;;;;;;4998807;28;20451;-68
2022/05/09 05:25:14;;;;;;;27.63;10.30;;;7.70;99.90;;;;;;5016281;28;20085;-68
2022/05/09 05:27:40;;;;;;;21.42;9.18;;;7.80;99.90;;;;;;5016150;28;20054;-69
2022/05/09 05:30:09;;;;;;;17.63;8.77;;;7.80;99.90;;;;;;5016202;28;20052;-67
2022/05/09 05:32:37;;;;;;;24.75;10.05;;;7.90;99.90;;;;;;5015174;28;20422;-68
2022/05/09 05:35:05;;;;;;;25.55;9.65;;;7.90;99.90;;;;;;5016100;28;20054;-67
2022/05/09 05:37:32;;;;;;;24.45;8.63;;;8.00;99.90;;;;;;4999186;28;20053;-67
2022/05/09 05:39:58;;;;;;;31.58;10.02;;;8.00;99.90;;;;;;5016010;28;20049;-67
2022/05/09 05:42:24;;;;;;;23.77;10.00;;;8.10;99.90;;;;;;5015999;28;20056;-67
2022/05/09 05:44:50;;;;;;;28.42;10.45;;;8.10;99.90;;;;;;5015823;28;20456;-68
2022/05/09 05:47:18;;;;;;;25.65;10.73;;;8.20;99.90;;;;;;5015651;28;20069;-67
2022/05/09 05:49:44;;;;;;;32.15;10.65;;;8.20;99.90;;;;;;5020542;28;20057;-66
2022/05/09 05:52:11;;;;;;;26.70;10.10;;;8.30;99.90;;;;;;5015235;28;20120;-67
2022/05/09 05:54:40;;;;;;;26.35;10.32;;;8.30;99.90;;;;;;5012026;28;20041;-68
2022/05/09 05:57:27;;;;;;;26.30;11.43;;;8.50;99.90;;;;;;5015399;28;20041;-67
2022/05/09 05:59:55;;;;;;;24.58;9.82;;;8.50;99.90;;;;;;5015189;28;20133;-66
2022/05/09 06:02:21;;;;;;;25.70;9.65;;;8.60;99.90;;;;;;5015501;28;20065;-66
2022/05/09 06:04:47;;;;;;;19.73;10.07;;;8.70;99.90;;;;;;5015796;28;20045;-66
2022/05/09 06:07:15;;;;;;;27.38;9.65;;;8.80;99.90;;;;;;5014561;28;20050;-67
2022/05/09 06:09:42;;;;;;;30.55;9.73;;;8.90;99.90;;;;;;4998038;28;20038;-66
2022/05/09 06:12:08;;;;;;;23.10;9.27;;;9.00;99.90;;;;;;5015016;28;20041;-67
2022/05/09 06:14:34;;;;;;;27.75;9.73;;;9.10;99.90;;;;;;5015247;28;20125;-67
2022/05/09 06:16:59;;;;;;;22.92;7.40;;;9.20;99.90;;;;;;5015569;28;20384;-67
2022/05/09 06:19:25;;;;;;;26.60;8.52;;;9.30;99.90;;;;;;5015586;28;20046;-66
2022/05/09 06:21:51;;;;;;;24.88;9.43;;;9.40;99.90;;;;;;5014905;28;20052;-66
2022/05/09 06:24:17;;;;;;;24.00;8.35;;;9.50;99.90;;;;;;5014426;28;20061;-68
2022/05/09 06:26:44;;;;;;;19.80;8.55;;;9.60;99.90;;;;;;5015089;28;20375;-67
2022/05/09 06:29:10;;;;;;;23.20;7.63;;;9.80;99.90;;;;;;5015041;28;20049;-67
2022/05/09 06:31:37;;;;;;;16.50;7.13;;;9.90;99.90;;;;;;5015286;28;20045;-67
2022/05/09 06:34:04;;;;;;;18.73;7.38;;;10.00;99.90;;;;;;5014982;28;20045;-67
2022/05/09 06:36:36;;;;;;;19.63;8.23;;;10.10;99.90;;;;;;5014852;28;20046;-67
2022/05/09 06:39:02;;;;;;;22.27;8.35;;;10.20;99.90;;;;;;5015215;28;20367;-67
2022/05/09 06:41:28;;;;;;;22.25;8.18;;;10.30;99.90;;;;;;5014218;28;20045;-67
2022/05/09 06:43:53;;;;;;;21.65;7.75;;;10.40;99.90;;;;;;5015025;28;20475;-67
2022/05/09 06:46:19;;;;;;;20.55;7.68;;;10.50;99.90;;;;;;5014934;28;20361;-67
2022/05/09 06:48:45;;;;;;;13.60;6.95;;;10.60;99.90;;;;;;5015066;28;20053;-67
2022/05/09 06:51:11;;;;;;;21.00;7.38;;;10.80;99.90;;;;;;5014746;28;20108;-68
2022/05/09 06:53:36;;;;;;;21.13;7.00;;;10.90;99.90;;;;;;5014790;28;20364;-69
2022/05/09 06:56:02;;;;;;;20.17;7.45;;;11.00;99.90;;;;;;4997495;28;20353;-68
2022/05/09 06:58:28;;;;;;;18.88;6.90;;;11.10;99.90;;;;;;5013854;28;20078;-68
2022/05/09 07:00:54;;;;;;;19.52;7.18;;;11.20;99.90;;;;;;5014976;28;20050;-68
2022/05/09 07:03:20;;;;;;;20.50;8.15;;;11.30;99.90;;;;;;5014452;28;20065;-68
2022/05/09 07:05:48;;;;;;;20.63;6.97;;;11.50;99.90;;;;;;5014576;28;20042;-67
2022/05/09 07:08:14;;;;;;;16.30;6.65;;;11.50;99.90;;;;;;5011729;28;20050;-70
2022/05/09 07:10:40;;;;;;;17.67;7.43;;;11.70;99.90;;;;;;5014820;28;20077;-70
2022/05/09 07:13:06;;;;;;;21.60;7.03;;;11.80;99.90;;;;;;5014777;28;20049;-68
2022/05/09 07:15:33;;;;;;;23.77;7.78;;;11.90;99.90;;;;;;5013893;28;20073;-69
2022/05/09 07:17:59;;;;;;;16.48;6.90;;;12.00;99.90;;;;;;5014373;28;20049;-70
2022/05/09 07:20:26;;;;;;;20.65;7.07;;;12.20;99.90;;;;;;5014179;28;20049;-69
2022/05/09 07:22:55;;;;;;;15.93;6.97;;;12.30;99.90;;;;;;5014499;28;20470;-70
2022/05/09 07:25:22;;;;;;;24.10;7.93;;;12.30;99.90;;;;;;5017273;28;20106;-66
2022/05/09 07:27:48;;;;;;;16.80;7.10;;;12.40;99.90;;;;;;5015700;28;20054;-67
2022/05/09 07:30:16;;;;;;;16.35;6.95;;;12.50;99.90;;;;;;5018048;28;20053;-68
2022/05/09 07:32:42;;;;;;;15.98;6.13;;;12.70;99.90;;;;;;5017409;28;20435;-68
2022/05/09 07:35:10;;;;;;;17.60;6.88;;;12.70;99.90;;;;;;5018192;28;20108;-67
2022/05/09 07:37:37;;;;;;;18.38;6.78;;;12.80;99.90;;;;;;5018169;28;20494;-67
2022/05/09 07:40:03;;;;;;;19.73;6.28;;;12.80;99.90;;;;;;5018140;28;20081;-65
2022/05/09 07:42:29;;;;;;;17.45;6.65;;;13.00;99.90;;;;;;5017760;28;20460;-67
2022/05/09 07:44:56;;;;;;;18.85;6.68;;;13.10;99.90;;;;;;5018078;28;20092;-67
2022/05/09 07:47:23;;;;;;;18.67;7.05;;;13.20;99.90;;;;;;5017793;28;20045;-67
2022/05/09 07:49:50;;;;;;;17.15;6.38;;;13.20;99.90;;;;;;5017509;28;20064;-69
2022/05/09 07:52:15;;;;;;;14.93;6.95;;;13.30;99.90;;;;;;5017871;28;20038;-68
2022/05/09 07:54:41;;;;;;;18.23;6.32;;;13.50;99.90;;;;;;5017615;28;20100;-68
2022/05/09 07:57:06;;;;;;;20.75;7.32;;;13.60;99.90;;;;;;5018061;28;20046;-68
2022/05/09 07:59:32;;;;;;;17.77;6.03;;;13.80;99.90;;;;;;5017957;28;20077;-68
2022/05/09 08:01:57;;;;;;;17.02;6.47;;;13.90;99.90;;;;;;5017595;28;20138;-69
2022/05/09 08:04:23;;;;;;;17.15;6.43;;;14.00;99.90;;;;;;5017740;28;20129;-68
2022/05/09 08:06:49;;;;;;;17.55;6.13;;;14.10;99.90;;;;;;5016649;28;20077;-68
2022/05/09 08:09:14;;;;;;;12.40;5.60;;;14.10;99.90;;;;;;5017660;28;20096;-68
2022/05/09 08:11:41;;;;;;;16.88;5.88;;;14.20;99.90;;;;;;5017660;28;20038;-69
2022/05/09 08:14:08;;;;;;;17.05;6.82;;;14.20;99.90;;;;;;5017647;28;20056;-68
2022/05/09 08:16:34;;;;;;;15.40;5.07;;;14.30;99.90;;;;;;4999798;28;20065;-69
2022/05/09 08:19:02;;;;;;;15.18;4.72;;;14.40;99.90;;;;;;5017517;28;20056;-68
2022/05/09 08:21:28;;;;;;;14.80;4.93;;;14.50;99.90;;;;;;5017634;28;20057;-69
2022/05/09 08:23:54;;;;;;;18.35;5.35;;;14.60;99.90;;;;;;5016748;28;20131;-69
2022/05/09 08:26:21;;;;;;;18.45;6.05;;;14.70;99.90;;;;;;5017360;28;20077;-69
2022/05/09 08:28:54;;;;;;;13.90;4.93;;;14.80;99.90;;;;;;5016642;28;20053;-69
2022/05/09 08:31:21;;;;;;;12.52;4.53;;;14.80;99.90;;;;;;5017100;28;20064;-69
2022/05/09 08:33:49;;;;;;;15.35;5.07;;;14.90;99.90;;;;;;5016907;28;20042;-69
2022/05/09 08:39:00;;;;;;;15.40;5.47;;;15.10;99.90;;;;;;5016465;28;20429;-68
2022/05/09 08:41:34;;;;;;;15.98;5.00;;;15.10;99.90;;;;;;5017033;28;20125;-68
2022/05/09 08:44:09;;;;;;;14.80;5.22;;;15.30;99.90;;;;;;5017129;28;20137;-69
2022/05/09 08:46:43;;;;;;;14.40;4.82;;;15.30;99.90;;;;;;5016735;28;20050;-69
2022/05/09 08:49:19;;;;;;;;;;;15.30;99.90;;;;;;5028147;28;20057;-69
2022/05/09 08:51:59;;;;;;;10.45;5.18;;;15.40;99.90;;;;;;5036335;28;20358;-69
2022/05/09 08:54:25;;;;;;;15.65;5.18;;;15.60;99.90;;;;;;5035793;28;20445;-69
2022/05/09 08:56:58;;;;;;;15.93;4.78;;;15.70;99.90;;;;;;5019933;28;20073;-68
2022/05/09 08:59:28;;;;;;;13.38;4.68;;;15.80;99.90;;;;;;4997166;28;20054;-68
2022/05/09 09:02:04;;;;;;;9.43;5.10;;;15.90;99.90;;;;;;4997269;28;20073;-69
2022/05/09 09:04:31;;;;;;;9.88;4.18;;;16.10;99.90;;;;;;4996471;28;20549;-68
2022/05/09 09:07:24;;;;;;;14.90;5.47;;;16.20;99.90;;;;;;4997040;28;20042;-69
2022/05/09 09:10:06;;;;;;;12.80;4.00;;;16.20;99.90;;;;;;5015522;28;20038;-68
2022/05/09 09:12:48;;;;;;;18.40;5.20;;;16.30;99.90;;;;;;5015753;28;20053;-69
2022/05/09 09:15:47;;;;;;;16.13;4.60;;;16.40;99.90;;;;;;4996651;28;20082;-68
2022/05/09 09:18:37;;;;;;;10.05;3.88;;;16.60;99.90;;;;;;4996850;28;20050;-70
2022/05/09 09:21:13;;;;;;;14.05;3.97;;;16.70;99.90;;;;;;4997070;28;20125;-70
2022/05/09 09:24:08;;;;;;;14.63;3.90;;;16.70;99.90;;;;;;5015359;28;20368;-70
2022/05/09 09:26:55;;;;;;;18.38;4.80;;;16.80;99.90;;;;;;4992602;28;20058;-70
2022/05/09 09:29:29;;;;;;;12.30;4.55;;;16.80;99.90;;;;;;5020369;28;20045;-70
2022/05/09 09:32:09;;;;;;;9.38;3.70;;;16.90;99.90;;;;;;5014333;28;20459;-70
2022/05/09 09:34:47;;;;;;;16.55;3.60;;;17.10;99.90;;;;;;5016131;28;20037;-70
2022/05/09 09:37:31;;;;;;;11.10;3.95;;;17.00;99.90;;;;;;5016104;28;20050;-69
2022/05/09 09:39:57;;;;;;;10.95;4.07;;;17.00;99.90;;;;;;5015895;28;20058;-69
2022/05/09 09:42:23;;;;;;;10.35;4.25;;;17.00;99.90;;;;;;5034758;28;20054;-68
2022/05/09 09:44:51;;;;;;;14.95;4.65;;;17.00;99.90;;;;;;5035169;28;20037;-69
2022/05/09 09:47:19;;;;;;;13.55;4.22;;;17.10;99.90;;;;;;5027545;28;20081;-69
2022/05/09 09:49:48;;;;;;;11.82;4.10;;;17.10;99.90;;;;;;5015341;28;20147;-69
2022/05/09 09:52:21;;;;;;;15.75;3.97;;;17.20;99.90;;;;;;5015495;28;20060;-69
2022/05/09 09:55:01;;;;;;;19.20;4.97;;;17.30;99.90;;;;;;5015048;28;20054;-68
2022/05/09 09:57:32;;;;;;;11.32;4.18;;;17.40;99.90;;;;;;5015489;28;20056;-69
2022/05/09 10:00:13;;;;;;;11.18;3.95;;;17.40;99.90;;;;;;5015363;28;20077;-69
2022/05/09 10:02:38;;;;;;;14.02;4.38;;;17.30;97.00;;;;;;5015709;28;20065;-68
2022/05/09 10:05:12;;;;;;;16.55;4.63;;;17.40;99.90;;;;;;5014505;28;20141;-69
2022/05/09 10:07:39;;;;;;;13.35;3.90;;;17.60;99.40;;;;;;4998236;28;20136;-68
2022/05/09 10:10:12;;;;;;;10.55;3.88;;;17.60;99.60;;;;;;5015717;28;20128;-69
2022/05/09 10:12:44;;;;;;;9.67;3.93;;;17.70;95.40;;;;;;5015476;28;20053;-69
2022/05/09 10:15:36;;;;;;;8.82;4.03;;;17.80;95.90;;;;;;5015231;28;20292;-69
2022/05/09 10:18:22;;;;;;;9.07;3.78;;;17.80;93.80;;;;;;5015256;28;20422;-69
2022/05/09 10:20:51;;;;;;;13.70;3.40;;;17.90;96.60;;;;;;4997722;28;20118;-68
2022/05/09 10:26:21;;;;;;;11.82;4.32;;;18.00;97.90;;;;;;5015149;28;20049;-68
2022/05/09 10:29:10;;;;;;;10.23;3.47;;;18.00;95.20;;;;;;4997694;28;20042;-70
2022/05/09 10:31:53;;;;;;;14.60;4.50;;;18.20;96.40;;;;;;5014952;28;20046;-69
2022/05/09 10:34:42;;;;;;;10.00;3.83;;;18.30;95.60;;;;;;5014727;28;20337;-69
2022/05/09 10:37:14;;;;;;;8.80;3.92;;;18.40;94.40;;;;;;5015238;28;20042;-69
2022/05/09 10:39:48;;;;;;;12.73;4.10;;;18.40;93.10;;;;;;5014339;28;20058;-68
2022/05/09 10:42:20;;;;;;;10.30;4.30;;;18.50;94.70;;;;;;4997827;28;20050;-69
2022/05/09 10:44:49;;;;;;;12.98;3.83;;;18.50;94.60;;;;;;5014948;28;20088;-69
2022/05/09 10:47:25;;;;;;;10.05;4.07;;;18.40;93.80;;;;;;5014635;28;20116;-69
2022/05/09 10:50:11;;;;;;;10.95;4.35;;;18.30;94.90;;;;;;5017318;28;20049;-67
2022/05/09 10:53:14;;;;;;;10.70;3.83;;;18.40;95.50;;;;;;5014451;28;20530;-72
2022/05/09 10:55:49;;;;;;;9.98;3.47;;;18.50;96.50;;;;;;5014439;28;20046;-70
2022/05/09 10:58:37;;;;;;;13.38;4.00;;;18.60;95.90;;;;;;5030043;28;20095;-70
2022/05/09 11:01:33;;;;;;;9.27;3.90;;;18.70;91.20;;;;;;5020811;28;20507;-70
2022/05/09 11:04:00;;;;;;;11.13;4.10;;;18.80;90.70;;;;;;5018757;28;20092;-72
2022/05/09 11:06:48;;;;;;;7.80;3.50;;;19.00;93.30;;;;;;5018961;28;20042;-72
2022/05/09 11:09:26;;;;;;;9.80;3.70;;;19.20;92.30;;;;;;5019019;28;20038;-71
2022/05/09 11:11:57;;;;;;;15.35;4.65;;;19.30;91.20;;;;;;5018063;28;20152;-72
2022/05/09 11:14:38;;;;;;;14.82;4.47;;;19.20;92.30;;;;;;5018250;28;20041;-70
2022/05/09 11:17:22;;;;;;;10.57;4.28;;;19.40;92.80;;;;;;5018666;28;20435;-70
2022/05/09 11:20:01;;;;;;;10.20;3.80;;;19.50;94.50;;;;;;5018637;28;20084;-71
2022/05/09 11:22:43;;;;;;;8.88;4.00;;;19.50;94.00;;;;;;5018257;28;20058;-72
2022/05/09 11:25:15;;;;;;;16.58;4.82;;;19.70;91.80;;;;;;5018096;28;20444;-71
2022/05/09 11:27:59;;;;;;;9.43;4.05;;;19.80;92.30;;;;;;5018415;28;20071;-73
2022/05/09 11:30:36;;;;;;;;;;;19.90;91.00;;;;;;5018002;28;20045;-71
2022/05/09 11:33:32;;;;;;;9.18;4.25;;;20.00;84.50;;;;;;5018047;28;19921;-73
2022/05/09 11:36:35;;;;;;;12.77;4.35;;;20.20;85.10;;;;;;5018297;28;20100;-70
2022/05/09 11:39:00;;;;;;;11.57;4.53;;;20.20;89.40;;;;;;5017868;28;20108;-71
2022/05/09 11:41:31;;;;;;;11.98;4.00;;;20.60;90.70;;;;;;5018247;28;20448;-70
2022/05/09 11:44:11;;;;;;;10.90;4.72;;;20.50;86.80;;;;;;5018184;28;20069;-69
2022/05/09 11:47:16;;;;;;;13.48;4.93;;;20.70;86.50;;;;;;5017434;28;20551;-70
2022/05/09 11:49:44;;;;;;;;;;;20.70;87.90;;;;;;5018397;28;20062;-73
2022/05/09 11:52:25;;;;;;;11.15;4.50;;;20.80;86.20;;;;;;5000132;28;20390;-70
2022/05/09 11:54:52;;;;;;;10.30;4.10;;;20.90;84.90;;;;;;5018051;28;20042;-71
2022/05/09 11:57:23;;;;;;;12.90;4.28;;;21.10;89.50;;;;;;5017972;28;20046;-70
2022/05/09 12:00:00;;;;;;;11.73;3.80;;;21.20;81.90;;;;;;5000353;28;20520;-70
2022/05/09 12:02:45;;;;;;;13.02;4.53;;;21.20;87.90;;;;;;5018042;28;20411;-70
2022/05/09 12:05:26;;;;;;;10.98;4.43;;;21.40;81.70;;;;;;4998442;28;20050;-70
2022/05/09 12:08:20;;;;;;;12.13;4.47;;;21.70;80.30;;;;;;5000649;28;20038;-70
2022/05/09 12:10:49;;;;;;;9.52;3.83;;;21.90;82.70;;;;;;5013719;28;20085;-70
2022/05/09 12:13:43;;;;;;;14.70;4.82;;;22.00;81.70;;;;;;5017539;28;20042;-70
2022/05/09 12:16:10;;;;;;;;;;;22.10;79.90;;;;;;5017850;28;20139;-70
2022/05/09 12:18:58;;;;;;;11.55;4.72;;;22.20;79.20;;;;;;5017551;28;19931;-70
2022/05/09 12:21:32;;;;;;;13.38;4.32;;;22.40;76.10;;;;;;5016684;28;20054;-70
2022/05/09 12:24:14;;;;;;;9.65;4.28;;;22.60;82.00;;;;;;5017214;28;20399;-70
2022/05/09 12:26:42;;;;;;;10.68;4.20;;;23.10;75.50;;;;;;5017671;28;20037;-70
2022/05/09 12:29:31;;;;;;;12.63;4.05;;;23.20;78.20;;;;;;5017262;28;20042;-71
2022/05/09 12:32:00;;;;;;;10.52;4.57;;;23.70;76.60;;;;;;5017070;28;20042;-70
2022/05/09 12:34:34;;;;;;;13.02;4.75;;;23.80;77.60;;;;;;4999650;28;20060;-71
2022/05/09 12:37:01;;;;;;;10.57;4.30;;;24.10;74.90;;;;;;5015914;28;20460;-71
2022/05/09 12:39:33;;;;;;;11.57;4.55;;;24.60;74.30;;;;;;5016735;28;20364;-71
2022/05/09 12:42:01;;;;;;;12.63;4.20;;;24.30;68.50;;;;;;5016993;28;20049;-70
2022/05/09 12:44:40;;;;;;;10.95;4.00;;;24.50;69.20;;;;;;5000017;28;20108;-71
2022/05/09 12:47:13;;;;;;;11.15;4.18;;;24.30;65.80;;;;;;5016615;28;20539;-71
2022/05/09 12:49:49;;;;;;;10.73;4.30;;;24.00;67.00;;;;;;5019241;28;20053;-71
2022/05/09 12:52:32;;;;;;;12.68;3.85;;;24.60;68.40;;;;;;5016496;28;20464;-70
2022/05/09 12:57:44;;;;;;;10.40;4.30;;;25.00;65.60;;;;;;4999456;28;20150;-71
2022/05/09 13:00:18;;;;;;;9.82;3.95;;;24.80;64.40;;;;;;5016707;28;20077;-71
2022/05/09 13:02:44;;;;;;;9.90;4.47;;;25.50;64.20;;;;;;5013620;28;20111;-71
2022/05/09 13:05:13;;;;;;;8.50;4.20;;;25.60;62.70;;;;;;5016700;28;20050;-71
2022/05/09 13:08:04;;;;;;;9.52;3.83;;;25.20;62.50;;;;;;5016679;28;20057;-71
2022/05/09 13:10:30;;;;;;;9.07;4.03;;;25.70;61.20;;;;;;5016232;28;20594;-71
2022/05/09 13:13:00;;;;;;;12.85;3.88;;;26.30;63.20;;;;;;4997054;28;20114;-71